Eveleth, Minnesota
Current Conditions -  °F | °C
As of 4:31 AM on Monday 20 Oct 2014 (Local Time) from KEVM Reporting Station
Clear Clear  
Wind Chill: 39°   Ceiling: Unl
Heat Index: 39°   Visibility: 10mi
Dew Point: 37°   Wind: 3mph
Humidity: 93%   Direction: 270°W
Pressure: 29.89"   Gusts: NA
Location:  47.46°N, 92.54°W
Report Text: KEVM 200931Z AUTO 27003KT 10SM CLR 04/03 A2989 RMK AO2
Loading
Personal Weather Stations






























Interactive Weather Map
Tropical Storm Tracking
New forecast layout! Learn more

10-Day Weather Forecast

Advertisements
Track Severe Weather on mobile